Time;durP1;ratioP1;P1;durP2;ratioP2;P2;SDS_P1;SDS_P2;PMS_P1;PMS_P2;Temp;Humidity;BMP_temperature;BMP_pressure;BME280_temperature;BME280_humidity;BME280_pressure;Samples;Min_cycle;Max_cycle;Signal;HPM_P1;HPM_P2
2022/06/11 00:01:42;;;;;;;13.23;8.82;;;17.10;99.90;;;;;;4983605;28;20049;-70
2022/06/11 00:04:15;;;;;;;14.52;10.13;;;17.10;99.90;;;;;;5013496;28;20129;-70
2022/06/11 00:06:46;;;;;;;12.00;9.40;;;17.00;99.90;;;;;;5006336;28;20088;-71
2022/06/11 00:09:12;;;;;;;11.93;9.57;;;17.00;99.90;;;;;;4998042;28;20132;-70
2022/06/11 00:11:39;;;;;;;11.07;8.40;;;16.90;99.90;;;;;;4988591;28;20487;-70
2022/06/11 00:14:05;;;;;;;9.93;7.30;;;16.80;99.90;;;;;;4993997;28;20049;-71
2022/06/11 00:16:31;;;;;;;9.73;7.65;;;16.80;99.90;;;;;;4989809;28;20038;-70
2022/06/11 00:18:58;;;;;;;10.65;5.97;;;16.70;99.90;;;;;;5009507;28;20049;-70
2022/06/11 00:21:27;;;;;;;9.88;6.25;;;16.70;99.90;;;;;;5004451;28;20046;-70
2022/06/11 00:23:53;;;;;;;11.15;6.47;;;16.70;99.90;;;;;;5005123;28;20054;-70
2022/06/11 00:26:20;;;;;;;11.15;5.63;;;16.60;99.90;;;;;;4990708;28;20046;-70
2022/06/11 00:28:47;;;;;;;9.05;4.93;;;16.60;99.90;;;;;;5003282;28;20042;-70
2022/06/11 00:31:16;;;;;;;9.98;4.38;;;16.60;99.90;;;;;;5002440;28;20038;-70
2022/06/11 00:33:43;;;;;;;9.02;3.70;;;16.60;99.90;;;;;;5003659;28;20060;-70
2022/06/11 00:36:13;;;;;;;7.70;4.20;;;16.50;99.90;;;;;;4992630;28;20082;-70
2022/06/11 00:38:40;;;;;;;8.43;3.70;;;16.50;99.90;;;;;;5004909;28;20046;-70
2022/06/11 00:41:07;;;;;;;8.90;4.00;;;16.50;99.90;;;;;;5004878;28;20566;-71
2022/06/11 00:43:37;;;;;;;9.25;3.72;;;16.40;99.90;;;;;;5045601;28;20050;-70
2022/06/11 00:46:40;;;;;;;6.25;3.08;;;16.40;99.90;;;;;;5008544;28;20112;-70
2022/06/11 00:49:32;;;;;;;6.03;3.42;;;16.30;99.90;;;;;;5012929;28;20096;-71
2022/06/11 00:52:11;;;;;;;5.85;3.53;;;16.20;99.90;;;;;;5025356;28;20061;-70
2022/06/11 00:54:40;;;;;;;10.35;3.85;;;16.20;99.90;;;;;;5007468;28;20058;-70
2022/06/11 00:57:08;;;;;;;6.28;3.30;;;16.10;99.90;;;;;;5017680;28;20033;-70
2022/06/11 00:59:43;;;;;;;8.65;4.38;;;16.10;99.90;;;;;;5009490;28;20081;-70
2022/06/11 01:02:10;;;;;;;9.02;4.25;;;16.10;99.90;;;;;;5002200;28;20059;-70
2022/06/11 01:04:36;;;;;;;10.50;3.60;;;16.00;99.90;;;;;;4987595;28;20050;-70
2022/06/11 01:07:25;;;;;;;8.05;3.20;;;16.00;99.90;;;;;;4991281;28;20378;-70
2022/06/11 01:10:06;;;;;;;8.47;3.40;;;16.00;99.90;;;;;;5004364;28;20115;-70
2022/06/11 01:13:01;;;;;;;7.13;3.60;;;16.00;99.90;;;;;;5001966;28;20034;-70
2022/06/11 01:15:45;;;;;;;7.05;3.13;;;16.00;99.90;;;;;;4979313;28;20073;-70
2022/06/11 01:18:40;;;;;;;5.85;3.10;;;16.00;99.90;;;;;;5028417;28;20404;-70
2022/06/11 01:21:22;;;;;;;6.43;3.75;;;15.90;99.90;;;;;;4994325;28;20532;-70
2022/06/11 01:23:53;;;;;;;8.20;3.35;;;15.90;99.90;;;;;;4993975;28;20051;-70
2022/06/11 01:26:56;;;;;;;6.30;3.75;;;15.80;99.90;;;;;;5017294;28;20046;-70
2022/06/11 01:30:30;;;;;;;7.65;3.97;;;15.80;99.90;;;;;;5010517;28;20050;-70
2022/06/11 01:33:16;;;;;;;7.40;3.90;;;15.70;99.90;;;;;;4969820;28;20043;-69
2022/06/11 01:35:45;;;;;;;7.00;3.63;;;15.70;99.90;;;;;;4989969;28;20116;-70
2022/06/11 01:38:22;;;;;;;8.27;4.20;;;15.60;99.90;;;;;;4998608;28;20042;-70
2022/06/11 01:41:06;;;;;;;9.30;4.03;;;15.60;99.90;;;;;;4995661;28;20058;-70
2022/06/11 01:43:37;;;;;;;8.30;4.57;;;15.60;99.90;;;;;;5033154;28;21112;-70
2022/06/11 01:46:07;;;;;;;7.13;4.45;;;15.60;99.90;;;;;;5033276;28;20050;-70
2022/06/11 01:48:34;;;;;;;8.05;5.22;;;15.50;99.90;;;;;;4992422;28;20621;-70
2022/06/11 01:51:22;;;;;;;8.18;4.47;;;15.40;99.90;;;;;;5035757;28;20097;-70
2022/06/11 01:54:09;;;;;;;7.57;4.20;;;15.40;99.90;;;;;;4987599;28;20497;-69
2022/06/11 01:57:08;;;;;;;5.78;4.47;;;15.40;99.90;;;;;;4987046;28;20049;-70
2022/06/11 02:00:04;;;;;;;8.02;5.00;;;15.30;99.90;;;;;;4987441;28;20057;-70
2022/06/11 02:02:55;;;;;;;9.85;5.57;;;15.30;99.90;;;;;;5001810;28;20209;-70
2022/06/11 02:05:44;;;;;;;8.68;6.18;;;15.30;99.90;;;;;;4989072;28;20046;-70
2022/06/11 02:08:16;;;;;;;8.93;6.03;;;15.20;99.90;;;;;;5021505;28;20104;-70
2022/06/11 02:10:57;;;;;;;11.82;8.43;;;15.20;99.90;;;;;;5026302;28;20073;-70
2022/06/11 02:13:27;;;;;;;11.18;9.45;;;15.20;99.90;;;;;;5001627;28;20065;-70
2022/06/11 02:16:22;;;;;;;12.05;9.05;;;15.20;99.90;;;;;;5004492;28;20046;-70
2022/06/11 02:18:49;;;;;;;16.30;13.15;;;15.20;99.90;;;;;;4981981;28;20038;-70
2022/06/11 02:21:19;;;;;;;16.45;12.13;;;15.20;99.90;;;;;;4988845;28;20044;-71
2022/06/11 02:23:58;;;;;;;16.73;14.00;;;15.30;99.90;;;;;;5005502;28;20143;-70
2022/06/11 02:26:28;;;;;;;14.30;12.07;;;15.30;99.90;;;;;;5019358;28;20074;-69
2022/06/11 02:28:56;;;;;;;14.20;11.27;;;15.30;99.90;;;;;;4986246;28;20046;-70
2022/06/11 02:31:40;;;;;;;16.08;12.93;;;15.30;99.90;;;;;;5002297;28;20042;-70
2022/06/11 02:34:08;;;;;;;16.10;13.80;;;15.40;99.90;;;;;;5002523;28;20396;-70
2022/06/11 02:37:03;;;;;;;16.27;13.45;;;15.30;99.90;;;;;;4986633;28;20042;-70
2022/06/11 02:39:34;;;;;;;14.73;12.73;;;15.40;99.90;;;;;;4996400;28;20053;-70
2022/06/11 02:42:02;;;;;;;18.35;13.27;;;15.30;99.90;;;;;;4988485;28;20038;-69
2022/06/11 02:44:28;;;;;;;17.52;13.32;;;15.30;99.90;;;;;;5005720;28;20045;-70
2022/06/11 02:46:54;;;;;;;15.88;11.73;;;15.40;99.90;;;;;;4997948;28;20629;-70
2022/06/11 02:49:25;;;;;;;16.15;9.88;;;15.40;99.90;;;;;;4988005;28;20045;-70
2022/06/11 02:51:58;;;;;;;16.52;9.30;;;15.40;99.90;;;;;;5016096;28;20437;-70
2022/06/11 02:54:25;;;;;;;14.50;9.20;;;15.40;99.90;;;;;;5036624;28;20048;-70
2022/06/11 02:56:54;;;;;;;14.25;9.50;;;15.40;99.90;;;;;;4986240;28;20512;-70
2022/06/11 02:59:25;;;;;;;15.23;10.40;;;15.40;99.90;;;;;;5018400;28;20405;-70
2022/06/11 03:01:54;;;;;;;13.20;8.98;;;15.40;99.90;;;;;;5021280;28;20052;-70
2022/06/11 03:04:23;;;;;;;13.88;10.32;;;15.40;99.90;;;;;;4985862;28;20056;-70
2022/06/11 03:06:50;;;;;;;14.13;9.98;;;15.40;99.90;;;;;;4986352;28;20050;-70
2022/06/11 03:09:20;;;;;;;16.27;10.65;;;15.30;99.90;;;;;;5004220;28;20046;-70
2022/06/11 03:11:46;;;;;;;;;;;15.30;99.90;;;;;;5004969;28;20037;-70
2022/06/11 03:14:13;;;;;;;14.02;10.98;;;15.20;99.90;;;;;;5033931;28;19933;-69
2022/06/11 03:16:39;;;;;;;15.27;10.88;;;15.20;99.90;;;;;;4985854;28;20057;-70
2022/06/11 03:19:06;;;;;;;12.77;10.38;;;15.10;99.90;;;;;;5008729;28;20029;-70
2022/06/11 03:21:32;;;;;;;14.05;10.95;;;15.10;99.90;;;;;;4987629;28;20050;-70
2022/06/11 03:23:58;;;;;;;13.60;11.15;;;15.10;99.90;;;;;;5002004;28;20507;-70
2022/06/11 03:26:24;;;;;;;16.48;11.45;;;15.10;99.90;;;;;;4999019;28;20128;-70
2022/06/11 03:28:52;;;;;;;14.57;11.50;;;15.00;99.90;;;;;;4997872;28;20046;-70
2022/06/11 03:31:19;;;;;;;15.98;12.23;;;15.00;99.90;;;;;;4999920;28;20042;-70
2022/06/11 03:33:45;;;;;;;15.20;10.57;;;15.00;99.90;;;;;;5016953;28;20057;-70
2022/06/11 03:36:13;;;;;;;13.82;11.30;;;15.00;99.90;;;;;;4990247;28;20069;-70
2022/06/11 03:38:42;;;;;;;16.40;13.00;;;15.00;99.90;;;;;;4993972;28;20049;-70
2022/06/11 03:41:10;;;;;;;13.32;11.38;;;14.90;99.90;;;;;;5001268;28;20045;-70
2022/06/11 03:43:35;;;;;;;19.35;14.95;;;14.90;99.90;;;;;;4976711;28;20069;-72
2022/06/11 03:46:02;;;;;;;12.85;11.55;;;14.90;99.90;;;;;;5019539;28;20485;-70
2022/06/11 03:48:29;;;;;;;12.32;11.02;;;14.80;99.90;;;;;;5011717;28;20508;-70
2022/06/11 03:50:57;;;;;;;15.88;12.18;;;14.80;99.90;;;;;;4994070;28;20087;-71
2022/06/11 03:53:24;;;;;;;17.90;15.98;;;14.70;99.90;;;;;;5045482;28;20100;-70
2022/06/11 03:55:50;;;;;;;20.80;16.85;;;14.60;99.90;;;;;;5004510;28;20205;-70
2022/06/11 03:58:18;;;;;;;17.05;14.52;;;14.70;99.90;;;;;;5007681;28;20120;-70
2022/06/11 04:03:30;;;;;;;20.23;16.38;;;14.70;99.90;;;;;;5028081;28;20405;-70
2022/06/11 04:05:56;;;;;;;17.77;15.55;;;14.70;99.90;;;;;;4995018;28;20413;-70
2022/06/11 04:08:24;;;;;;;21.08;17.13;;;14.60;99.90;;;;;;5005905;28;20132;-71
2022/06/11 04:10:51;;;;;;;20.08;16.13;;;14.70;99.90;;;;;;4990986;28;20497;-70
2022/06/11 04:13:17;;;;;;;18.23;16.30;;;14.70;99.90;;;;;;4992339;28;20046;-70
2022/06/11 04:15:44;;;;;;;17.38;14.60;;;14.70;99.90;;;;;;5002101;28;20099;-70
2022/06/11 04:18:24;;;;;;;18.40;16.15;;;14.70;99.90;;;;;;4988885;28;20694;-70
2022/06/11 04:20:49;;;;;;;16.45;14.70;;;14.70;99.90;;;;;;5037743;28;20092;-70
2022/06/11 04:23:15;;;;;;;16.80;13.57;;;14.70;99.90;;;;;;5002848;28;20069;-70
2022/06/11 04:25:42;;;;;;;18.50;14.60;;;14.70;99.90;;;;;;4992754;28;20054;-70
2022/06/11 04:28:08;;;;;;;17.77;12.77;;;14.70;99.90;;;;;;5025196;28;20421;-69
2022/06/11 04:30:33;;;;;;;15.27;12.55;;;14.70;99.90;;;;;;5029551;28;20046;-70
2022/06/11 04:32:59;;;;;;;20.00;12.68;;;14.70;99.90;;;;;;5016581;28;20790;-70
2022/06/11 04:35:25;;;;;;;16.08;11.55;;;14.80;99.90;;;;;;5015793;28;20043;-70
2022/06/11 04:37:51;;;;;;;17.85;11.73;;;14.80;99.90;;;;;;5032261;28;20099;-70
2022/06/11 04:40:18;;;;;;;17.80;10.68;;;14.80;99.90;;;;;;4976110;28;20074;-70
2022/06/11 04:42:44;;;;;;;15.40;10.90;;;14.80;99.90;;;;;;5004459;28;20474;-70
2022/06/11 04:45:12;;;;;;;17.38;10.20;;;14.90;99.90;;;;;;5009673;28;20517;-71
2022/06/11 04:47:39;;;;;;;16.52;10.18;;;14.90;99.90;;;;;;4983154;28;20058;-70
2022/06/11 04:50:06;;;;;;;17.30;9.90;;;14.90;99.90;;;;;;5001593;28;20081;-70
2022/06/11 04:52:32;;;;;;;12.55;8.40;;;14.90;99.90;;;;;;4995935;28;20108;-70
2022/06/11 04:54:58;;;;;;;15.23;7.60;;;15.00;99.90;;;;;;4998729;28;20112;-71
2022/06/11 04:57:24;;;;;;;14.98;8.18;;;15.00;99.90;;;;;;4972990;28;20668;-70
2022/06/11 04:59:51;;;;;;;15.95;7.93;;;15.00;99.90;;;;;;4975991;28;20712;-71
2022/06/11 05:02:17;;;;;;;15.55;7.93;;;15.00;99.90;;;;;;5002680;28;20129;-71
2022/06/11 05:04:43;;;;;;;15.35;6.25;;;15.10;99.90;;;;;;5019998;28;20129;-70
2022/06/11 05:07:09;;;;;;;15.50;6.40;;;15.10;99.90;;;;;;5006363;28;20053;-70
2022/06/11 05:09:35;;;;;;;17.52;5.88;;;15.10;99.90;;;;;;5027081;28;20046;-70
2022/06/11 05:12:02;;;;;;;13.93;5.03;;;15.10;99.90;;;;;;5030368;28;20073;-70
2022/06/11 05:14:28;;;;;;;17.38;5.70;;;15.20;99.90;;;;;;5000369;28;20059;-70
2022/06/11 05:16:59;;;;;;;15.80;5.70;;;15.20;99.90;;;;;;4995582;28;20070;-71
2022/06/11 05:19:26;;;;;;;14.38;4.63;;;15.20;99.90;;;;;;5002015;28;20085;-70
2022/06/11 05:21:52;;;;;;;16.27;5.85;;;15.30;99.90;;;;;;5018117;28;20133;-70
2022/06/11 05:24:21;;;;;;;16.27;5.07;;;15.30;99.90;;;;;;4986042;28;20104;-70
2022/06/11 05:26:51;;;;;;;14.95;4.80;;;15.40;99.90;;;;;;4996407;28;20049;-70
2022/06/11 05:29:24;;;;;;;13.70;4.95;;;15.40;99.90;;;;;;5008672;28;20046;-73
2022/06/11 05:31:50;;;;;;;15.48;5.53;;;15.50;99.90;;;;;;4982893;28;20058;-72
2022/06/11 05:34:16;;;;;;;18.60;4.97;;;15.50;99.90;;;;;;4987675;28;20038;-72
2022/06/11 05:36:43;;;;;;;15.88;5.20;;;15.50;99.90;;;;;;5001740;28;20061;-73
2022/06/11 05:39:11;;;;;;;18.05;5.88;;;15.50;99.90;;;;;;4989361;28;20039;-73
2022/06/11 05:41:37;;;;;;;14.50;4.78;;;15.60;99.90;;;;;;5005428;28;20057;-72
2022/06/11 05:44:04;;;;;;;20.15;5.80;;;15.70;99.90;;;;;;4984990;28;20038;-70
2022/06/11 05:46:31;;;;;;;18.13;5.40;;;15.70;99.90;;;;;;5009951;28;20069;-70
2022/06/11 05:49:05;;;;;;;15.23;4.95;;;15.70;99.90;;;;;;5029598;28;20572;-70
2022/06/11 05:51:35;;;;;;;19.30;6.55;;;15.80;99.90;;;;;;5004536;28;20049;-70
2022/06/11 05:54:06;;;;;;;18.55;5.00;;;15.80;99.90;;;;;;4997103;28;20097;-70
2022/06/11 05:56:32;;;;;;;18.00;5.72;;;15.80;99.90;;;;;;5013591;28;20046;-70
2022/06/11 05:59:04;;;;;;;13.38;4.57;;;15.90;99.90;;;;;;4986292;28;20057;-70
2022/06/11 06:01:35;;;;;;;20.13;6.10;;;15.90;99.90;;;;;;5005194;28;20128;-71
2022/06/11 06:04:01;;;;;;;17.17;5.85;;;16.00;99.90;;;;;;5000727;28;20045;-70
2022/06/11 06:06:27;;;;;;;17.63;5.03;;;16.00;99.90;;;;;;5004921;28;20521;-70
2022/06/11 06:08:56;;;;;;;18.48;5.43;;;16.10;99.90;;;;;;5005484;28;20052;-71
2022/06/11 06:11:22;;;;;;;18.00;5.63;;;16.10;99.90;;;;;;5020002;28;20088;-70
2022/06/11 06:13:48;;;;;;;18.20;4.93;;;16.20;99.90;;;;;;4986827;28;20053;-70
2022/06/11 06:16:20;;;;;;;16.77;5.40;;;16.20;99.90;;;;;;5007602;28;20481;-70
2022/06/11 06:18:47;;;;;;;20.40;6.10;;;16.30;99.90;;;;;;4992236;28;20052;-70
2022/06/11 06:21:21;;;;;;;17.17;5.60;;;16.30;99.90;;;;;;5003222;28;20578;-71
2022/06/11 06:23:47;;;;;;;20.23;5.78;;;16.30;99.90;;;;;;5034932;28;20049;-70
2022/06/11 06:26:16;;;;;;;19.30;5.47;;;16.30;99.90;;;;;;5007281;28;20125;-71
2022/06/11 06:28:42;;;;;;;16.88;5.95;;;16.30;99.90;;;;;;5017787;28;20038;-70
2022/06/11 06:31:10;;;;;;;19.52;5.07;;;16.40;99.90;;;;;;5002419;28;20034;-70
2022/06/11 06:33:36;;;;;;;19.45;5.80;;;16.50;99.90;;;;;;5022768;28;20046;-70
2022/06/11 06:36:05;;;;;;;19.02;5.75;;;16.50;99.90;;;;;;4997173;28;20043;-71
2022/06/11 06:38:31;;;;;;;17.52;5.60;;;16.60;99.90;;;;;;5034075;28;20053;-70
2022/06/11 06:40:57;;;;;;;21.58;6.30;;;16.70;99.90;;;;;;5000044;28;20412;-71
2022/06/11 06:43:23;;;;;;;17.13;5.57;;;16.80;99.90;;;;;;4993337;28;20121;-70
2022/06/11 06:45:49;;;;;;;26.17;6.47;;;16.80;99.90;;;;;;5019314;28;20558;-71
2022/06/11 06:48:16;;;;;;;19.60;5.82;;;16.90;99.90;;;;;;5040067;28;20046;-71
2022/06/11 06:50:42;;;;;;;20.98;5.40;;;16.90;99.90;;;;;;5012883;28;20045;-70
2022/06/11 06:53:08;;;;;;;20.58;5.93;;;17.00;99.90;;;;;;5019080;28;20043;-70
2022/06/11 06:55:34;;;;;;;23.75;5.90;;;17.20;99.90;;;;;;5018204;28;20136;-71
2022/06/11 06:58:00;;;;;;;22.17;5.85;;;17.30;99.90;;;;;;5003607;28;20038;-71
2022/06/11 07:00:26;;;;;;;21.98;5.35;;;17.30;99.90;;;;;;4982702;28;20593;-70
2022/06/11 07:02:53;;;;;;;18.83;4.97;;;17.40;99.90;;;;;;5012485;28;20135;-71
2022/06/11 07:05:20;;;;;;;21.80;6.38;;;17.50;99.90;;;;;;4997980;28;20042;-71
2022/06/11 07:07:47;;;;;;;19.60;4.82;;;17.50;99.90;;;;;;4985566;28;20045;-71
2022/06/11 07:10:14;;;;;;;21.77;6.10;;;17.60;99.90;;;;;;5032962;28;20107;-71
2022/06/11 07:12:40;;;;;;;21.95;5.65;;;17.70;99.90;;;;;;5000523;28;20506;-71
2022/06/11 07:15:06;;;;;;;21.70;5.97;;;17.70;99.90;;;;;;4999737;28;20637;-70
2022/06/11 07:17:37;;;;;;;20.83;6.28;;;17.70;99.90;;;;;;5001430;28;20777;-70
2022/06/11 07:20:12;;;;;;;18.63;5.55;;;17.70;99.90;;;;;;4999126;28;20508;-71
2022/06/11 07:22:42;;;;;;;23.63;5.55;;;17.80;99.90;;;;;;4995064;28;20084;-70
2022/06/11 07:25:09;;;;;;;26.67;6.70;;;17.90;99.90;;;;;;5004006;28;20112;-70
2022/06/11 07:27:40;;;;;;;20.85;5.97;;;18.10;99.90;;;;;;5001291;28;20117;-71
2022/06/11 07:30:21;;;;;;;20.67;5.40;;;18.20;99.90;;;;;;5012118;28;20545;-71
2022/06/11 07:32:50;;;;;;;19.10;5.60;;;18.40;99.90;;;;;;4984501;28;20416;-70
2022/06/11 07:35:17;;;;;;;17.25;4.78;;;18.50;99.90;;;;;;4999401;28;20125;-71
2022/06/11 07:37:45;;;;;;;15.68;4.95;;;18.70;99.90;;;;;;5002416;28;20042;-71
2022/06/11 07:40:12;;;;;;;21.20;6.38;;;18.80;99.90;;;;;;4985587;28;20042;-70
2022/06/11 07:42:38;;;;;;;25.50;6.07;;;18.90;99.90;;;;;;5011217;28;20073;-70
2022/06/11 07:45:04;;;;;;;24.23;6.05;;;19.00;99.90;;;;;;4969337;28;20500;-70
2022/06/11 07:50:15;;;;;;;24.83;5.28;;;19.20;99.90;;;;;;5000807;28;20050;-70
2022/06/11 07:52:42;;;;;;;24.65;5.50;;;19.30;99.90;;;;;;5035908;28;20160;-70
2022/06/11 07:55:10;;;;;;;22.15;5.68;;;19.40;99.90;;;;;;5001992;28;20215;-71
2022/06/11 07:57:37;;;;;;;18.23;5.00;;;19.40;99.90;;;;;;4997378;28;20038;-71
2022/06/11 08:00:07;;;;;;;21.00;5.28;;;19.40;99.90;;;;;;4993532;28;20249;-70
2022/06/11 08:02:32;;;;;;;;;;;19.40;99.90;;;;;;4991289;28;20647;-72
2022/06/11 08:04:58;;;;;;;22.95;5.45;;;19.50;99.90;;;;;;4993987;28;19996;-70
2022/06/11 08:07:25;;;;;;;19.85;4.95;;;19.60;99.90;;;;;;4978392;28;20497;-71
2022/06/11 08:09:51;;;;;;;18.98;5.45;;;19.70;99.90;;;;;;4980698;28;20058;-71
2022/06/11 08:12:17;;;;;;;18.80;5.60;;;19.70;99.90;;;;;;4998031;28;20042;-71
2022/06/11 08:14:43;;;;;;;25.60;6.75;;;19.90;99.90;;;;;;5011897;28;20132;-72
2022/06/11 08:17:08;;;;;;;20.38;5.00;;;19.90;99.90;;;;;;4984536;28;20601;-72
2022/06/11 08:19:34;;;;;;;18.38;4.85;;;20.00;99.90;;;;;;5029486;28;20536;-72
2022/06/11 08:22:00;;;;;;;23.05;5.38;;;20.10;99.90;;;;;;4994615;28;20128;-72
2022/06/11 08:24:26;;;;;;;18.70;4.53;;;20.20;99.90;;;;;;4969913;28;20038;-71
2022/06/11 08:26:51;;;;;;;19.55;4.60;;;20.30;99.90;;;;;;4993889;28;20464;-71
2022/06/11 08:29:17;;;;;;;20.45;4.50;;;20.40;99.90;;;;;;4966012;28;20069;-71
2022/06/11 08:31:44;;;;;;;20.27;5.18;;;20.50;99.90;;;;;;4981150;28;20456;-72
2022/06/11 08:34:09;;;;;;;18.23;5.63;;;20.50;99.90;;;;;;5006796;28;20156;-71
2022/06/11 08:36:35;;;;;;;20.75;5.25;;;20.50;99.90;;;;;;4986977;28;20505;-72
2022/06/11 08:39:01;;;;;;;20.38;5.65;;;20.60;99.90;;;;;;5002219;28;20300;-71
2022/06/11 08:41:35;;;;;;;21.83;5.10;;;20.60;99.90;;;;;;5006855;28;20092;-72
2022/06/11 08:44:10;;;;;;;19.77;4.70;;;20.50;99.90;;;;;;4986480;28;20104;-71
2022/06/11 08:46:40;;;;;;;16.00;4.03;;;20.50;99.90;;;;;;5002846;28;20054;-71
2022/06/11 08:49:16;;;;;;;18.00;5.03;;;20.70;99.90;;;;;;5004827;28;20071;-70
2022/06/11 08:51:55;;;;;;;16.70;4.45;;;20.80;99.90;;;;;;5013859;28;20108;-71
2022/06/11 08:54:26;;;;;;;19.55;5.00;;;21.00;99.90;;;;;;4988797;28;20045;-71
2022/06/11 08:57:15;;;;;;;17.45;4.35;;;21.20;99.90;;;;;;4986485;28;20132;-72
2022/06/11 08:59:59;;;;;;;17.13;4.82;;;21.30;99.90;;;;;;5019583;28;20042;-71
2022/06/11 09:02:59;;;;;;;19.40;5.18;;;21.40;99.90;;;;;;5006046;28;20116;-71
2022/06/11 09:05:38;;;;;;;16.23;4.47;;;21.50;99.90;;;;;;5002982;28;21646;-72
2022/06/11 09:08:42;;;;;;;20.27;4.28;;;21.30;99.90;;;;;;4985896;28;20560;-72
2022/06/11 09:11:55;;;;;;;20.55;4.95;;;21.20;99.90;;;;;;5002352;28;20496;-71
2022/06/11 09:14:39;;;;;;;23.23;6.10;;;21.30;99.90;;;;;;5040269;28;20500;-72
2022/06/11 09:17:32;;;;;;;23.27;6.95;;;21.30;99.90;;;;;;5043000;28;20484;-72
2022/06/11 09:20:25;;;;;;;13.60;4.65;;;21.40;99.90;;;;;;5004494;28;20108;-72
2022/06/11 09:23:03;;;;;;;16.50;4.70;;;21.50;99.90;;;;;;4977958;28;20087;-72
2022/06/11 09:25:42;;;;;;;15.52;3.95;;;21.70;99.90;;;;;;5019809;28;20050;-72
2022/06/11 09:28:36;;;;;;;20.83;4.80;;;21.80;99.90;;;;;;5002415;28;20084;-71
2022/06/11 09:31:15;;;;;;;18.10;3.67;;;21.80;99.90;;;;;;5001680;28;20056;-72
2022/06/11 09:34:04;;;;;;;17.15;4.78;;;21.90;99.90;;;;;;5021042;28;20057;-72
2022/06/11 09:36:38;;;;;;;16.60;3.57;;;22.00;99.90;;;;;;5009721;28;20073;-71
2022/06/11 09:39:22;;;;;;;13.60;3.40;;;22.00;99.90;;;;;;4989226;28;20811;-73
2022/06/11 09:41:59;;;;;;;15.43;4.07;;;22.00;99.90;;;;;;5020780;28;20050;-73
2022/06/11 09:45:04;;;;;;;14.23;3.92;;;22.10;99.90;;;;;;4999147;28;20061;-73
2022/06/11 09:47:54;;;;;;;15.38;3.53;;;22.20;99.90;;;;;;4990737;28;20145;-73
2022/06/11 09:50:36;;;;;;;13.98;2.83;;;22.00;99.90;;;;;;5036370;28;20443;-73
2022/06/11 09:53:32;;;;;;;14.48;3.13;;;22.00;99.90;;;;;;4988042;28;20509;-72
2022/06/11 09:56:10;;;;;;;15.80;2.92;;;22.00;99.90;;;;;;4985165;28;20508;-72
2022/06/11 09:59:07;;;;;;;15.35;3.20;;;21.90;99.90;;;;;;4985836;28;20041;-72
2022/06/11 10:02:09;;;;;;;17.13;3.65;;;22.00;99.90;;;;;;4999620;28;20034;-72
2022/06/11 10:04:43;;;;;;;13.20;2.78;;;22.10;99.90;;;;;;4979299;28;20050;-72
2022/06/11 10:07:19;;;;;;;15.27;3.22;;;22.40;99.90;;;;;;4992809;28;20041;-71
2022/06/11 10:10:08;;;;;;;8.52;2.45;;;22.60;99.90;;;;;;5043185;28;20057;-72
2022/06/11 10:12:46;;;;;;;16.85;3.15;;;22.70;99.90;;;;;;5028614;28;20056;-72
2022/06/11 10:15:15;;;;;;;10.15;2.40;;;22.80;98.80;;;;;;4999103;28;20109;-74
2022/06/11 10:17:49;;;;;;;13.80;3.00;;;22.90;99.90;;;;;;5002368;28;20108;-74
2022/06/11 10:20:38;;;;;;;14.07;2.67;;;23.00;99.90;;;;;;5017219;28;20046;-74
2022/06/11 10:23:11;;;;;;;;;;;23.20;99.80;;;;;;4998455;28;20060;-73
2022/06/11 10:26:02;;;;;;;11.60;2.90;;;23.20;99.40;;;;;;5016677;28;19925;-74
2022/06/11 10:28:56;;;;;;;9.32;2.42;;;23.30;99.90;;;;;;5000184;28;20564;-74
2022/06/11 10:31:48;;;;;;;10.20;2.30;;;23.50;99.20;;;;;;4997408;28;20566;-73
2022/06/11 10:34:26;;;;;;;13.52;2.90;;;23.50;97.80;;;;;;5026287;28;20120;-73
2022/06/11 10:37:16;;;;;;;15.45;2.90;;;23.40;99.90;;;;;;4998271;28;20070;-73
2022/06/11 10:40:00;;;;;;;;;;;23.40;99.90;;;;;;5003840;28;20449;-73
2022/06/11 10:42:37;;;;;;;7.70;2.17;;;23.50;99.90;;;;;;5028205;28;19932;-73
2022/06/11 10:45:03;;;;;;;12.00;2.80;;;23.60;94.40;;;;;;5002185;28;20480;-74
2022/06/11 10:47:36;;;;;;;8.95;2.45;;;23.60;98.30;;;;;;5004075;28;20103;-73
2022/06/11 10:50:22;;;;;;;9.80;2.25;;;23.80;98.30;;;;;;4970537;28;20116;-74
2022/06/11 10:52:57;;;;;;;11.55;2.85;;;23.90;93.70;;;;;;4987354;28;20072;-73
2022/06/11 10:55:35;;;;;;;12.50;2.80;;;23.90;90.20;;;;;;5016572;28;20045;-74
2022/06/11 10:58:30;;;;;;;12.70;2.67;;;23.70;91.00;;;;;;4999310;28;20516;-72
2022/06/11 11:01:25;;;;;;;9.25;2.30;;;23.60;91.20;;;;;;4982656;28;20530;-74
2022/06/11 11:04:13;;;;;;;12.27;3.30;;;23.60;90.10;;;;;;4996751;28;20046;-73
2022/06/11 11:06:41;;;;;;;12.20;2.80;;;23.60;92.80;;;;;;5001493;28;20066;-73
2022/06/11 11:09:24;;;;;;;11.60;2.90;;;23.60;90.80;;;;;;5004345;28;20057;-74
2022/06/11 11:11:55;;;;;;;9.55;2.90;;;23.60;92.60;;;;;;4983744;28;20049;-74
2022/06/11 11:14:39;;;;;;;11.45;2.88;;;23.70;91.20;;;;;;5000316;28;20187;-73
2022/06/11 11:17:13;;;;;;;10.68;2.35;;;23.70;90.10;;;;;;5035376;28;20049;-74
2022/06/11 11:20:29;;;;;;;11.93;2.72;;;23.70;84.50;;;;;;4985299;28;20049;-73
2022/06/11 11:22:35;;;;;;;10.77;2.95;;;23.60;85.90;;;;;;4998203;28;20496;-73
2022/06/11 11:25:03;;;;;;;11.95;2.70;;;23.60;88.40;;;;;;5003695;28;20145;-73
2022/06/11 11:27:41;;;;;;;9.60;2.63;;;23.70;87.00;;;;;;4998699;28;20265;-74
2022/06/11 11:30:13;;;;;;;12.32;2.97;;;23.70;90.40;;;;;;4988043;28;20692;-73
2022/06/11 11:32:40;;;;;;;11.70;3.17;;;23.80;86.30;;;;;;4984685;28;20404;-73
2022/06/11 11:35:24;;;;;;;10.40;2.97;;;23.80;89.40;;;;;;5006802;28;20048;-73
2022/06/11 11:38:16;;;;;;;9.65;2.88;;;23.80;84.90;;;;;;5031635;28;20080;-73
2022/06/11 11:40:56;;;;;;;12.23;2.58;;;23.80;80.90;;;;;;4998457;28;20121;-74
2022/06/11 11:43:24;;;;;;;11.88;2.55;;;23.70;89.60;;;;;;5017112;28;20047;-73
2022/06/11 11:46:03;;;;;;;11.18;2.55;;;23.80;87.20;;;;;;5000556;28;20053;-73
2022/06/11 11:48:48;;;;;;;12.00;2.78;;;23.80;87.90;;;;;;4990608;28;20045;-74
2022/06/11 11:51:20;;;;;;;10.50;2.80;;;23.90;84.60;;;;;;5017818;28;20384;-73
2022/06/11 11:53:49;;;;;;;11.80;2.35;;;23.90;80.50;;;;;;5001664;28;20104;-74
2022/06/11 11:56:24;;;;;;;13.05;3.03;;;23.90;87.50;;;;;;4985569;28;20297;-74
2022/06/11 11:58:57;;;;;;;11.55;2.95;;;24.00;87.30;;;;;;4985047;28;20133;-74
2022/06/11 12:01:26;;;;;;;12.00;2.60;;;24.10;86.30;;;;;;4998059;28;20149;-74
2022/06/11 12:04:12;;;;;;;12.02;2.80;;;24.10;87.70;;;;;;5000015;28;20204;-74
2022/06/11 12:07:04;;;;;;;11.48;2.75;;;24.20;85.20;;;;;;4993254;28;20041;-74
2022/06/11 12:09:47;;;;;;;9.60;2.42;;;24.00;84.60;;;;;;4994842;28;20050;-74
2022/06/11 12:12:18;;;;;;;10.15;2.42;;;23.60;86.90;;;;;;5002546;28;20046;-74
2022/06/11 12:14:59;;;;;;;10.82;2.60;;;23.30;88.40;;;;;;5003813;28;20060;-74
2022/06/11 12:17:44;;;;;;;8.82;2.30;;;23.30;91.10;;;;;;5018881;28;20042;-74
2022/06/11 12:20:35;;;;;;;13.30;2.92;;;23.40;89.20;;;;;;5023780;28;20183;-74
2022/06/11 12:23:19;;;;;;;11.45;2.70;;;23.60;86.40;;;;;;4987135;28;20083;-73
2022/06/11 12:25:52;;;;;;;12.90;2.70;;;23.80;84.80;;;;;;4986552;28;20052;-73
2022/06/11 12:28:22;;;;;;;12.73;2.88;;;23.80;81.50;;;;;;5013449;28;20406;-74
2022/06/11 12:30:49;;;;;;;11.90;2.80;;;23.90;84.10;;;;;;4990636;28;20068;-73
2022/06/11 12:33:16;;;;;;;12.18;2.60;;;23.90;80.70;;;;;;5034356;28;20053;-74
2022/06/11 12:35:52;;;;;;;13.00;2.70;;;23.90;79.00;;;;;;5003827;28;20053;-74
2022/06/11 12:38:21;;;;;;;10.70;2.63;;;24.00;82.80;;;;;;5021599;28;20042;-74
2022/06/11 12:40:58;;;;;;;10.10;2.40;;;24.10;81.20;;;;;;4998094;28;20107;-73
2022/06/11 12:44:03;;;;;;;9.25;2.65;;;24.20;81.90;;;;;;4990402;28;20310;-74
2022/06/11 12:46:52;;;;;;;11.80;3.10;;;24.10;66.80;;;;;;4978710;28;20053;-74
2022/06/11 12:49:37;;;;;;;10.50;2.53;;;24.00;79.60;;;;;;5004330;28;20050;-74
2022/06/11 12:52:17;;;;;;;11.50;2.78;;;24.10;82.50;;;;;;5005773;28;20061;-74
2022/06/11 12:55:14;;;;;;;9.48;2.40;;;24.20;81.80;;;;;;5004888;28;20042;-74
2022/06/11 12:58:14;;;;;;;9.32;2.67;;;24.30;78.90;;;;;;5003353;28;21263;-74
2022/06/11 13:01:05;;;;;;;11.80;3.42;;;24.20;74.60;;;;;;5003597;28;20050;-73
2022/06/11 13:03:37;;;;;;;12.02;3.08;;;24.30;84.50;;;;;;5018970;28;20054;-74
2022/06/11 13:06:09;;;;;;;11.93;2.60;;;24.50;87.90;;;;;;5008364;28;20551;-74
2022/06/11 13:08:53;;;;;;;10.15;2.50;;;24.60;83.80;;;;;;5003172;28;20038;-74
2022/06/11 13:11:53;;;;;;;12.27;2.85;;;24.50;76.10;;;;;;4986339;28;20050;-74
2022/06/11 13:14:46;;;;;;;11.88;2.90;;;24.30;72.80;;;;;;4998808;28;20402;-74
2022/06/11 13:17:24;;;;;;;9.63;2.92;;;24.20;81.20;;;;;;5009376;28;20042;-74
2022/06/11 13:19:53;;;;;;;10.32;2.90;;;24.40;84.30;;;;;;5027697;28;20065;-74